Time;durP1;ratioP1;P1;durP2;ratioP2;P2;SDS_P1;SDS_P2;PMS_P1;PMS_P2;Temp;Humidity;BMP_temperature;BMP_pressure;BME280_temperature;BME280_humidity;BME280_pressure;Samples;Min_cycle;Max_cycle;Signal;HPM_P1;HPM_P2
2024/01/02 00:01:26;;;;;;;1.13;0.60;;;5.10;99.90;;;;;;5017669;28;20217;-69
2024/01/02 00:03:52;;;;;;;1.30;0.60;;;5.10;99.90;;;;;;5021967;28;20186;-69
2024/01/02 00:06:17;;;;;;;5.27;1.90;;;5.10;99.90;;;;;;5005190;28;20190;-69
2024/01/02 00:08:43;;;;;;;1.70;0.70;;;5.10;99.90;;;;;;5021769;28;20313;-69
2024/01/02 00:11:11;;;;;;;5.93;0.70;;;5.20;99.90;;;;;;5012704;28;20182;-70
2024/01/02 00:13:37;;;;;;;3.53;1.20;;;5.20;99.90;;;;;;5015865;28;20251;-70
2024/01/02 00:16:03;;;;;;;1.50;0.77;;;5.20;99.90;;;;;;5013326;28;20472;-70
2024/01/02 00:18:28;;;;;;;2.40;0.60;;;5.10;99.90;;;;;;5021811;28;20185;-69
2024/01/02 00:20:55;;;;;;;4.83;0.77;;;5.20;99.90;;;;;;5023048;28;20211;-70
2024/01/02 00:23:20;;;;;;;1.10;0.60;;;5.10;99.90;;;;;;5015475;28;20194;-70
2024/01/02 00:25:46;;;;;;;4.50;0.80;;;5.10;99.90;;;;;;5011685;28;20422;-70
2024/01/02 00:28:12;;;;;;;1.10;0.60;;;5.10;99.90;;;;;;4993373;28;20194;-70
2024/01/02 00:30:39;;;;;;;3.47;0.53;;;5.10;99.90;;;;;;5021237;28;20187;-70
2024/01/02 00:33:05;;;;;;;2.90;0.80;;;5.30;99.90;;;;;;5021705;28;20849;-70
2024/01/02 00:35:31;;;;;;;5.33;0.97;;;5.10;99.90;;;;;;5017366;28;20429;-70
2024/01/02 00:37:56;;;;;;;2.10;0.80;;;5.10;99.90;;;;;;5020325;28;20187;-70
2024/01/02 00:40:22;;;;;;;2.13;0.53;;;5.10;99.90;;;;;;5018357;28;20211;-70
2024/01/02 00:42:48;;;;;;;1.73;0.83;;;5.10;99.90;;;;;;5012352;28;20562;-71
2024/01/02 00:45:14;;;;;;;1.30;0.63;;;5.10;99.90;;;;;;5014140;28;20265;-70
2024/01/02 00:47:39;;;;;;;3.67;0.70;;;5.00;99.90;;;;;;5020809;28;20525;-70
2024/01/02 00:50:06;;;;;;;1.10;0.50;;;5.10;99.90;;;;;;5023475;28;20187;-71
2024/01/02 00:52:31;;;;;;;3.20;1.10;;;5.00;99.90;;;;;;5016794;28;20682;-70
2024/01/02 00:54:57;;;;;;;1.30;0.70;;;5.00;99.90;;;;;;5007770;28;20541;-69
2024/01/02 00:57:22;;;;;;;1.30;0.60;;;5.00;99.90;;;;;;5015443;28;20226;-71
2024/01/02 00:59:48;;;;;;;1.30;0.60;;;5.00;99.90;;;;;;5007925;28;20230;-71
2024/01/02 01:02:13;;;;;;;3.43;1.20;;;5.00;99.90;;;;;;5010638;28;20193;-71
2024/01/02 01:04:42;;;;;;;1.20;0.50;;;5.00;99.90;;;;;;5021402;28;20225;-71
2024/01/02 01:07:08;;;;;;;4.10;0.77;;;5.00;99.90;;;;;;5010931;28;20178;-70
2024/01/02 01:09:34;;;;;;;6.27;0.70;;;5.00;99.90;;;;;;5006801;28;20505;-70
2024/01/02 01:11:59;;;;;;;3.63;0.60;;;5.10;99.90;;;;;;5019980;28;20210;-70
2024/01/02 01:14:25;;;;;;;1.57;0.80;;;5.00;99.90;;;;;;5017333;28;20189;-70
2024/01/02 01:16:50;;;;;;;3.00;0.60;;;5.00;99.90;;;;;;5020347;28;20187;-70
2024/01/02 01:19:16;;;;;;;2.37;0.80;;;5.30;99.90;;;;;;5009955;28;20549;-70
2024/01/02 01:21:41;;;;;;;2.47;1.27;;;5.00;99.90;;;;;;5012082;28;20203;-70
2024/01/02 01:24:07;;;;;;;3.30;1.20;;;5.10;99.90;;;;;;5010238;28;20543;-70
2024/01/02 01:26:32;;;;;;;3.00;0.80;;;5.10;99.90;;;;;;5016786;28;20186;-70
2024/01/02 01:28:58;;;;;;;6.83;0.73;;;5.10;99.90;;;;;;5030037;28;20614;-71
2024/01/02 01:31:24;;;;;;;1.30;0.70;;;5.10;99.90;;;;;;5018929;28;20195;-71
2024/01/02 01:33:50;;;;;;;7.87;0.80;;;5.10;99.90;;;;;;5010326;28;20599;-70
2024/01/02 01:36:15;;;;;;;2.63;0.60;;;5.10;99.90;;;;;;5021536;28;20436;-71
2024/01/02 01:38:41;;;;;;;2.50;1.13;;;5.20;99.90;;;;;;5027482;28;20273;-71
2024/01/02 01:41:06;;;;;;;3.27;0.80;;;5.20;99.90;;;;;;5021223;28;20565;-71
2024/01/02 01:43:32;;;;;;;3.80;0.87;;;5.30;99.90;;;;;;5022412;28;20196;-71
2024/01/02 01:45:58;;;;;;;2.43;1.00;;;5.10;99.90;;;;;;5008363;28;20183;-71
2024/01/02 01:48:23;;;;;;;3.37;0.83;;;5.20;99.90;;;;;;5025744;28;20563;-70
2024/01/02 01:50:49;;;;;;;2.80;1.03;;;5.10;99.90;;;;;;5034788;28;20527;-70
2024/01/02 01:53:16;;;;;;;2.00;0.73;;;5.10;99.90;;;;;;5020618;28;20179;-71
2024/01/02 01:55:42;;;;;;;1.10;0.70;;;5.20;99.90;;;;;;5011281;28;20426;-70
2024/01/02 01:58:09;;;;;;;2.23;1.00;;;5.10;99.90;;;;;;5012796;28;20485;-71
2024/01/02 02:00:34;;;;;;;1.10;0.50;;;5.10;99.90;;;;;;5007943;28;20462;-70
2024/01/02 02:03:01;;;;;;;1.10;0.50;;;5.20;99.90;;;;;;5032547;28;20421;-71
2024/01/02 02:05:28;;;;;;;1.30;0.60;;;5.40;99.90;;;;;;5033685;28;20669;-70
2024/01/02 02:07:55;;;;;;;1.30;0.60;;;5.20;99.90;;;;;;5017912;28;20426;-70
2024/01/02 02:10:20;;;;;;;2.53;0.80;;;5.10;99.90;;;;;;5015121;28;20426;-71
2024/01/02 02:12:46;;;;;;;5.57;0.70;;;5.10;99.90;;;;;;5015120;28;20448;-69
2024/01/02 02:15:12;;;;;;;1.50;0.53;;;5.10;99.90;;;;;;5025145;28;20217;-70
2024/01/02 02:17:37;;;;;;;5.53;0.90;;;5.00;99.90;;;;;;5034845;28;20189;-69
2024/01/02 02:20:04;;;;;;;2.47;0.70;;;4.90;99.90;;;;;;5023862;28;20194;-70
2024/01/02 02:22:37;;;;;;;2.50;0.83;;;4.90;99.90;;;;;;5027248;28;20187;-70
2024/01/02 02:25:03;;;;;;;1.47;0.90;;;4.80;99.90;;;;;;5031701;28;20922;-70
2024/01/02 02:27:30;;;;;;;1.00;0.40;;;4.80;99.90;;;;;;5019896;28;20425;-69
2024/01/02 02:29:55;;;;;;;3.20;0.73;;;4.70;99.90;;;;;;5034435;28;20429;-68
2024/01/02 02:32:22;;;;;;;1.90;0.80;;;4.80;99.90;;;;;;5021227;28;20559;-69
2024/01/02 02:34:48;;;;;;;1.93;0.63;;;4.70;99.90;;;;;;5021252;28;20190;-68
2024/01/02 02:37:13;;;;;;;1.63;0.90;;;4.70;99.90;;;;;;5016224;28;20430;-70
2024/01/02 02:39:39;;;;;;;1.30;0.80;;;4.60;99.90;;;;;;5022891;28;20270;-70
2024/01/02 02:42:04;;;;;;;1.70;0.60;;;4.60;99.90;;;;;;5027251;28;20218;-70
2024/01/02 02:44:31;;;;;;;1.67;0.67;;;4.50;99.90;;;;;;5014227;28;20187;-70
2024/01/02 02:46:57;;;;;;;1.20;0.70;;;4.50;99.90;;;;;;5030674;28;20202;-70
2024/01/02 02:49:23;;;;;;;2.87;1.10;;;4.50;99.90;;;;;;5022837;28;20977;-70
2024/01/02 02:51:48;;;;;;;2.60;0.70;;;4.50;99.90;;;;;;5024188;28;20468;-70
2024/01/02 02:54:14;;;;;;;2.40;0.70;;;4.50;99.90;;;;;;5009136;28;20187;-70
2024/01/02 02:56:39;;;;;;;1.60;0.50;;;4.40;99.90;;;;;;5004688;28;20195;-70
2024/01/02 02:59:05;;;;;;;2.50;0.63;;;4.60;99.90;;;;;;5014202;28;20183;-70
2024/01/02 03:01:31;;;;;;;1.30;0.60;;;4.50;99.90;;;;;;5013686;28;20215;-70
2024/01/02 03:03:57;;;;;;;1.87;0.70;;;4.50;99.90;;;;;;5007324;28;20469;-70
2024/01/02 03:06:22;;;;;;;2.07;0.70;;;4.90;99.90;;;;;;5011731;28;20191;-70
2024/01/02 03:08:48;;;;;;;2.10;0.60;;;4.90;99.90;;;;;;5015498;28;20290;-70
2024/01/02 03:11:13;;;;;;;4.80;0.90;;;4.60;99.90;;;;;;5019960;28;20199;-69
2024/01/02 03:13:39;;;;;;;1.87;0.90;;;4.60;99.90;;;;;;5021855;28;20227;-69
2024/01/02 03:16:08;;;;;;;1.93;0.60;;;4.60;99.90;;;;;;5025794;28;20191;-69
2024/01/02 03:18:34;;;;;;;1.30;0.50;;;4.60;99.90;;;;;;5018486;28;20214;-69
2024/01/02 03:20:59;;;;;;;1.00;0.40;;;4.60;99.90;;;;;;5014146;28;20849;-69
2024/01/02 03:23:25;;;;;;;1.37;0.70;;;4.60;99.90;;;;;;5016631;28;20186;-68
2024/01/02 03:25:50;;;;;;;1.10;0.50;;;4.60;99.90;;;;;;5013563;28;20179;-68
2024/01/02 03:28:16;;;;;;;1.00;0.40;;;4.70;99.90;;;;;;5020337;28;20206;-69
2024/01/02 03:30:42;;;;;;;1.20;0.50;;;4.70;99.90;;;;;;5013009;28;20195;-69
2024/01/02 03:33:08;;;;;;;1.00;0.40;;;4.70;99.90;;;;;;5006783;28;20271;-68
2024/01/02 03:35:33;;;;;;;1.43;0.60;;;4.80;99.90;;;;;;5013084;28;20857;-69
2024/01/02 03:37:58;;;;;;;1.00;0.40;;;4.80;99.90;;;;;;5023478;28;20190;-69
2024/01/02 03:40:24;;;;;;;1.00;0.40;;;4.80;99.90;;;;;;5027938;28;20566;-68
2024/01/02 03:42:50;;;;;;;1.00;0.50;;;4.70;99.90;;;;;;5020518;28;20265;-68
2024/01/02 03:45:15;;;;;;;4.20;0.87;;;4.70;99.90;;;;;;5024658;28;20179;-68
2024/01/02 03:47:41;;;;;;;4.03;0.50;;;4.80;99.90;;;;;;5021393;28;20202;-69
2024/01/02 03:50:07;;;;;;;5.13;0.50;;;5.20;99.90;;;;;;5012856;28;20187;-68
2024/01/02 03:52:32;;;;;;;1.73;0.60;;;4.80;99.90;;;;;;5013245;28;20190;-68
2024/01/02 03:54:58;;;;;;;2.33;0.67;;;4.80;99.90;;;;;;5010914;28;20423;-68
2024/01/02 03:57:23;;;;;;;1.10;0.50;;;4.80;99.90;;;;;;5016751;28;20264;-69
2024/01/02 03:59:49;;;;;;;1.23;0.63;;;4.80;99.90;;;;;;5026510;28;20187;-68
2024/01/02 04:02:14;;;;;;;2.07;0.87;;;4.70;99.90;;;;;;5013109;28;20293;-68
2024/01/02 04:04:40;;;;;;;5.37;0.70;;;4.70;99.90;;;;;;5014168;28;20219;-68
2024/01/02 04:07:05;;;;;;;1.10;0.40;;;4.70;99.90;;;;;;5006189;28;20188;-68
2024/01/02 04:09:31;;;;;;;5.90;0.70;;;4.70;99.90;;;;;;5015072;28;20640;-67
2024/01/02 04:11:56;;;;;;;1.10;0.50;;;4.70;99.90;;;;;;5020903;28;20229;-68
2024/01/02 04:14:22;;;;;;;1.33;0.50;;;4.70;99.90;;;;;;5015247;28;20198;-67
2024/01/02 04:16:47;;;;;;;2.17;0.73;;;4.70;99.90;;;;;;5019597;28;20193;-67
2024/01/02 04:19:13;;;;;;;2.43;0.80;;;4.70;99.90;;;;;;5032604;28;20265;-67
2024/01/02 04:21:38;;;;;;;1.10;0.50;;;4.70;99.90;;;;;;5021744;28;20333;-67
2024/01/02 04:24:04;;;;;;;4.13;0.53;;;4.70;99.90;;;;;;5008891;28;20194;-67
2024/01/02 04:26:30;;;;;;;2.17;0.60;;;4.70;99.90;;;;;;5022177;28;20278;-67
2024/01/02 04:28:55;;;;;;;1.10;0.50;;;4.60;99.90;;;;;;5012029;28;20321;-67
2024/01/02 04:31:21;;;;;;;1.10;0.50;;;4.60;99.90;;;;;;5012510;28;20206;-67
2024/01/02 04:33:46;;;;;;;1.47;0.50;;;4.60;99.90;;;;;;5002494;28;20199;-67
2024/01/02 04:36:12;;;;;;;1.10;0.50;;;4.60;99.90;;;;;;5020222;28;20198;-67
2024/01/02 04:38:37;;;;;;;1.30;0.53;;;4.60;99.90;;;;;;5015550;28;20222;-67
2024/01/02 04:41:03;;;;;;;1.00;0.40;;;4.60;99.90;;;;;;5019654;28;20563;-68
2024/01/02 04:43:29;;;;;;;6.73;0.90;;;4.50;99.90;;;;;;5017070;28;20183;-68
2024/01/02 04:45:54;;;;;;;6.73;0.70;;;4.50;99.90;;;;;;5008570;28;20186;-68
2024/01/02 04:48:20;;;;;;;2.70;0.87;;;4.50;99.90;;;;;;5020014;28;20627;-68
2024/01/02 04:50:47;;;;;;;1.10;0.60;;;4.50;99.90;;;;;;5011736;28;20198;-67
2024/01/02 04:53:12;;;;;;;1.43;0.50;;;4.50;99.90;;;;;;5019153;28;20183;-66
2024/01/02 04:55:37;;;;;;;1.20;0.70;;;4.40;99.90;;;;;;5002882;28;20465;-67
2024/01/02 04:58:04;;;;;;;1.67;0.63;;;4.40;99.90;;;;;;5009119;28;20258;-67
2024/01/02 05:00:30;;;;;;;1.30;0.70;;;4.40;99.90;;;;;;5004847;28;20249;-68
2024/01/02 05:02:55;;;;;;;1.20;0.50;;;4.40;99.90;;;;;;5012263;28;20995;-68
2024/01/02 05:05:21;;;;;;;2.20;0.50;;;4.40;99.90;;;;;;5020662;28;20785;-67
2024/01/02 05:07:46;;;;;;;1.10;0.40;;;4.40;99.90;;;;;;5022449;28;20195;-67
2024/01/02 05:10:12;;;;;;;2.60;0.73;;;4.40;99.90;;;;;;5022083;28;20237;-67
2024/01/02 05:12:37;;;;;;;2.43;0.90;;;4.50;99.90;;;;;;5014627;28;20238;-68
2024/01/02 05:15:03;;;;;;;5.90;1.00;;;4.40;99.90;;;;;;5018152;28;20183;-68
2024/01/02 05:17:29;;;;;;;1.60;0.77;;;4.50;99.90;;;;;;5014457;28;20187;-68
2024/01/02 05:19:54;;;;;;;8.43;0.70;;;4.40;99.90;;;;;;4994118;28;20183;-68
2024/01/02 05:22:20;;;;;;;2.03;0.70;;;4.40;99.90;;;;;;5019522;28;20202;-68
2024/01/02 05:24:45;;;;;;;1.10;0.50;;;4.40;99.90;;;;;;5014982;28;20202;-68
2024/01/02 05:27:12;;;;;;;1.83;0.80;;;4.40;99.90;;;;;;5023899;28;20183;-67
2024/01/02 05:29:37;;;;;;;1.23;0.50;;;4.40;99.90;;;;;;5024525;28;20286;-67
2024/01/02 05:32:04;;;;;;;1.00;0.50;;;4.40;99.90;;;;;;5028993;28;20946;-67
2024/01/02 05:34:29;;;;;;;1.07;0.53;;;4.40;99.90;;;;;;5020297;28;20220;-67
2024/01/02 05:36:55;;;;;;;1.73;0.70;;;4.50;99.90;;;;;;5030972;28;20426;-67
2024/01/02 05:39:21;;;;;;;1.00;0.50;;;4.40;99.90;;;;;;5019056;28;20224;-67
2024/01/02 05:41:47;;;;;;;1.20;0.50;;;4.50;99.90;;;;;;5031524;28;20466;-67
2024/01/02 05:44:12;;;;;;;1.10;0.50;;;4.50;99.90;;;;;;5015427;28;20187;-67
2024/01/02 05:46:38;;;;;;;1.07;0.50;;;4.50;99.90;;;;;;5015752;28;20179;-68
2024/01/02 05:49:04;;;;;;;2.13;0.63;;;4.50;99.90;;;;;;5024729;28;20213;-68
2024/01/02 05:51:29;;;;;;;1.10;0.60;;;4.50;99.90;;;;;;5017796;28;20222;-68
2024/01/02 05:53:55;;;;;;;1.77;0.60;;;4.50;99.90;;;;;;5010720;28;20270;-68
2024/01/02 05:56:20;;;;;;;1.00;0.50;;;4.60;99.90;;;;;;5007073;28;20667;-67
2024/01/02 05:58:46;;;;;;;1.20;0.50;;;4.60;99.90;;;;;;5025173;28;20226;-67
2024/01/02 06:01:11;;;;;;;1.20;0.60;;;4.60;99.90;;;;;;5017791;28;20214;-68
2024/01/02 06:03:37;;;;;;;1.87;0.80;;;4.70;99.90;;;;;;5011672;28;20202;-68
2024/01/02 06:06:04;;;;;;;2.07;0.60;;;4.60;99.90;;;;;;5014772;28;20245;-68
2024/01/02 06:08:29;;;;;;;1.30;0.80;;;4.60;99.90;;;;;;5019553;28;20265;-68
2024/01/02 06:10:55;;;;;;;1.37;0.53;;;4.70;99.90;;;;;;5034785;28;20504;-67
2024/01/02 06:13:21;;;;;;;1.20;0.50;;;4.70;99.90;;;;;;5016007;28;20198;-67
2024/01/02 06:15:46;;;;;;;2.27;0.67;;;4.70;99.90;;;;;;5027662;28;20193;-68
2024/01/02 06:18:12;;;;;;;7.20;1.37;;;4.70;99.90;;;;;;5017254;28;20198;-68
2024/01/02 06:20:37;;;;;;;1.10;0.60;;;4.70;99.90;;;;;;5018575;28;20735;-68
2024/01/02 06:23:03;;;;;;;1.40;0.60;;;4.80;99.90;;;;;;5023106;28;20226;-68
2024/01/02 06:25:29;;;;;;;2.90;0.80;;;4.80;99.90;;;;;;5012648;28;20202;-68
2024/01/02 06:27:54;;;;;;;1.10;0.53;;;4.80;99.90;;;;;;5014879;28;20215;-68
2024/01/02 06:30:22;;;;;;;1.20;0.60;;;4.90;99.90;;;;;;5014484;28;20230;-68
2024/01/02 06:32:48;;;;;;;1.10;0.50;;;4.90;99.90;;;;;;5021392;28;20700;-67
2024/01/02 06:35:13;;;;;;;1.10;0.60;;;4.90;99.90;;;;;;5018824;28;20421;-67
2024/01/02 06:37:39;;;;;;;1.50;0.73;;;4.90;99.90;;;;;;5024914;28;20422;-67
2024/01/02 06:40:06;;;;;;;2.20;0.70;;;4.90;99.90;;;;;;5016797;28;20210;-67
2024/01/02 06:42:31;;;;;;;1.10;0.60;;;5.00;99.90;;;;;;5003882;28;20187;-67
2024/01/02 06:44:57;;;;;;;1.10;0.50;;;5.00;99.90;;;;;;5014158;28;20422;-67
2024/01/02 06:47:22;;;;;;;2.00;0.60;;;4.90;99.90;;;;;;5008976;28;20191;-67
2024/01/02 06:49:48;;;;;;;1.40;0.70;;;5.70;99.90;;;;;;5026536;28;20178;-67
2024/01/02 06:52:13;;;;;;;1.00;0.50;;;6.00;99.90;;;;;;5010820;28;20211;-67
2024/01/02 06:54:39;;;;;;;1.40;0.60;;;5.70;99.90;;;;;;5012010;28;20640;-67
2024/01/02 06:57:04;;;;;;;4.50;0.60;;;5.00;99.90;;;;;;5004271;28;20231;-67
2024/01/02 06:59:30;;;;;;;1.20;0.50;;;5.00;99.90;;;;;;5030296;28;20179;-67
2024/01/02 07:01:55;;;;;;;1.77;0.70;;;5.00;99.90;;;;;;5022747;28;20697;-68
2024/01/02 07:04:21;;;;;;;1.53;0.50;;;5.00;99.90;;;;;;5018944;28;20273;-68
2024/01/02 07:06:46;;;;;;;1.27;0.57;;;5.00;99.90;;;;;;5019625;28;20183;-69
2024/01/02 07:09:13;;;;;;;1.30;0.60;;;5.10;99.90;;;;;;5022821;28;20207;-67
2024/01/02 07:11:38;;;;;;;1.00;0.40;;;5.10;99.90;;;;;;5019327;28;20447;-69
2024/01/02 07:14:04;;;;;;;2.23;0.90;;;5.10;99.90;;;;;;5020025;28;20199;-68
2024/01/02 07:16:31;;;;;;;1.67;0.80;;;5.10;99.90;;;;;;5033556;28;20186;-67
2024/01/02 07:18:57;;;;;;;1.00;0.47;;;5.10;99.90;;;;;;5030390;28;20178;-67
2024/01/02 07:21:22;;;;;;;1.20;0.60;;;5.10;99.90;;;;;;5008880;28;20484;-67
2024/01/02 07:23:48;;;;;;;1.10;0.53;;;5.10;99.90;;;;;;5023791;28;20195;-67
2024/01/02 07:26:14;;;;;;;1.50;0.60;;;5.10;99.90;;;;;;5009203;28;20179;-68
2024/01/02 07:28:39;;;;;;;1.30;0.63;;;5.10;99.90;;;;;;5008556;28;20271;-68
2024/01/02 07:31:05;;;;;;;1.43;0.70;;;5.10;99.90;;;;;;5033371;28;20190;-67
2024/01/02 07:33:30;;;;;;;2.53;0.80;;;5.10;99.90;;;;;;5019536;28;20187;-67
2024/01/02 07:35:56;;;;;;;3.20;0.67;;;5.10;99.90;;;;;;5017618;28;20676;-67
2024/01/02 07:38:25;;;;;;;2.33;0.70;;;5.20;99.90;;;;;;5001838;28;20530;-67
2024/01/02 07:40:54;;;;;;;1.57;0.70;;;5.20;99.90;;;;;;5020975;28;20241;-67
2024/01/02 07:43:20;;;;;;;1.10;0.57;;;5.20;99.90;;;;;;5013783;28;21057;-67
2024/01/02 07:45:46;;;;;;;1.57;0.60;;;5.30;99.90;;;;;;5009778;28;20449;-67
2024/01/02 07:48:12;;;;;;;1.40;0.67;;;5.40;99.90;;;;;;5011630;28;20183;-67
2024/01/02 07:50:37;;;;;;;1.20;0.60;;;5.40;99.90;;;;;;5016199;28;20422;-67
2024/01/02 07:53:03;;;;;;;1.00;0.50;;;5.40;99.90;;;;;;5012502;28;20183;-67
2024/01/02 07:55:28;;;;;;;1.70;0.60;;;5.40;99.90;;;;;;5002366;28;20191;-67
2024/01/02 07:57:54;;;;;;;1.10;0.50;;;5.40;99.90;;;;;;5012854;28;20607;-67
2024/01/02 08:00:19;;;;;;;1.30;0.50;;;5.50;99.90;;;;;;5022434;28;20663;-67
2024/01/02 08:02:45;;;;;;;1.20;0.50;;;5.60;99.90;;;;;;5013063;28;20194;-67
2024/01/02 08:05:10;;;;;;;1.10;0.50;;;5.60;99.90;;;;;;5013815;28;20207;-67
2024/01/02 08:07:36;;;;;;;2.63;0.70;;;5.60;99.90;;;;;;5012762;28;20199;-68
2024/01/02 08:10:03;;;;;;;1.27;0.60;;;5.60;99.90;;;;;;5021984;28;20178;-68
2024/01/02 08:12:29;;;;;;;1.00;0.50;;;6.10;99.90;;;;;;5032644;28;20261;-68
2024/01/02 08:14:54;;;;;;;3.63;0.80;;;5.70;99.90;;;;;;5023814;28;20585;-68
2024/01/02 08:17:23;;;;;;;1.00;0.50;;;5.70;99.90;;;;;;5011480;28;20175;-68
2024/01/02 08:19:50;;;;;;;1.50;0.70;;;5.70;99.90;;;;;;5019541;28;20178;-68
2024/01/02 08:22:16;;;;;;;2.33;0.80;;;5.70;99.90;;;;;;5017402;28;20540;-68
2024/01/02 08:24:41;;;;;;;1.20;0.50;;;5.70;99.90;;;;;;5021379;28;20432;-68
2024/01/02 08:27:07;;;;;;;1.20;0.60;;;5.70;99.90;;;;;;5019582;28;20536;-68
2024/01/02 08:29:32;;;;;;;2.17;0.67;;;5.80;99.90;;;;;;5017488;28;20183;-68
2024/01/02 08:31:58;;;;;;;1.20;0.60;;;7.00;99.90;;;;;;5021500;28;20183;-67
2024/01/02 08:34:23;;;;;;;1.10;0.57;;;5.80;99.90;;;;;;5012592;28;20195;-67
2024/01/02 08:36:49;;;;;;;1.30;0.63;;;6.80;99.90;;;;;;5024128;28;20186;-67
2024/01/02 08:39:14;;;;;;;1.43;0.63;;;5.80;99.90;;;;;;5015081;28;20270;-67
2024/01/02 08:41:40;;;;;;;1.00;0.40;;;5.90;99.90;;;;;;5016397;28;20207;-67
2024/01/02 08:44:05;;;;;;;2.03;0.60;;;5.90;99.90;;;;;;5008084;28;20185;-67
2024/01/02 08:46:31;;;;;;;1.93;0.60;;;6.60;99.90;;;;;;5007461;28;20194;-67
2024/01/02 08:48:56;;;;;;;1.10;0.57;;;6.70;99.90;;;;;;5013662;28;20542;-67
2024/01/02 08:51:22;;;;;;;1.00;0.40;;;6.10;99.90;;;;;;5011574;28;20518;-68
2024/01/02 08:53:48;;;;;;;1.73;0.60;;;6.90;99.90;;;;;;5012510;28;20520;-67
2024/01/02 08:56:13;;;;;;;1.63;0.63;;;6.90;99.90;;;;;;5000202;28;20443;-67
2024/01/02 08:58:40;;;;;;;1.30;0.47;;;6.10;99.90;;;;;;5016462;28;20309;-68
2024/01/02 09:01:11;;;;;;;1.37;0.70;;;7.00;99.90;;;;;;5004796;28;20202;-67
2024/01/02 09:03:37;;;;;;;1.10;0.53;;;6.10;99.90;;;;;;5017481;28;21247;-67
2024/01/02 09:06:03;;;;;;;1.40;0.70;;;6.20;99.90;;;;;;5016459;28;20509;-68
2024/01/02 09:08:29;;;;;;;1.73;0.60;;;6.30;99.90;;;;;;5022900;28;20179;-68
2024/01/02 09:10:56;;;;;;;1.00;0.40;;;6.50;99.90;;;;;;5017918;28;20429;-69
2024/01/02 09:13:21;;;;;;;1.73;0.50;;;7.30;99.90;;;;;;5015158;28;20484;-69
2024/01/02 09:15:47;;;;;;;1.00;0.40;;;7.20;99.90;;;;;;5015764;28;20457;-69
2024/01/02 09:18:12;;;;;;;1.73;0.50;;;7.20;99.90;;;;;;5013884;28;20191;-69
2024/01/02 09:20:38;;;;;;;1.00;0.50;;;6.90;99.90;;;;;;5016130;28;20202;-68
2024/01/02 09:23:04;;;;;;;1.30;0.67;;;7.40;99.90;;;;;;5020069;28;20214;-68
2024/01/02 09:25:30;;;;;;;1.40;0.80;;;7.20;99.90;;;;;;5009121;28;20289;-68
2024/01/02 09:27:59;;;;;;;1.00;0.50;;;7.20;99.90;;;;;;5010303;28;20229;-68
2024/01/02 09:30:24;;;;;;;1.00;0.40;;;7.00;99.90;;;;;;5011687;28;20441;-69
2024/01/02 09:32:50;;;;;;;1.57;0.50;;;7.90;99.90;;;;;;5018209;28;20434;-69
2024/01/02 09:35:17;;;;;;;1.13;0.50;;;7.60;99.90;;;;;;5011540;28;20187;-69
2024/01/02 09:37:43;;;;;;;2.03;0.60;;;7.50;99.90;;;;;;5025832;28;20645;-68
2024/01/02 09:40:29;;;;;;;1.00;0.40;;;7.50;99.90;;;;;;5015718;28;20436;-69
2024/01/02 09:43:08;;;;;;;1.20;0.50;;;7.30;99.90;;;;;;5019822;28;20481;-69
2024/01/02 09:45:48;;;;;;;1.20;0.50;;;7.30;99.90;;;;;;5007877;28;20797;-69
2024/01/02 09:48:33;;;;;;;1.23;0.60;;;7.40;99.90;;;;;;5006335;28;20456;-69
2024/01/02 09:51:06;;;;;;;1.10;0.50;;;8.20;99.90;;;;;;5019738;28;20474;-69
2024/01/02 09:54:13;;;;;;;1.20;0.50;;;7.40;99.90;;;;;;5023612;28;20430;-69
2024/01/02 09:56:55;;;;;;;1.20;0.50;;;7.40;99.90;;;;;;5000808;28;20471;-69
2024/01/02 09:59:56;;;;;;;1.50;0.50;;;8.60;99.90;;;;;;5003734;28;20969;-68
2024/01/02 10:02:41;;;;;;;1.00;0.40;;;7.50;99.90;;;;;;5004271;28;20555;-68
2024/01/02 10:05:16;;;;;;;1.87;0.50;;;7.50;99.90;;;;;;5009971;28;20464;-68
2024/01/02 10:08:10;;;;;;;2.53;0.90;;;7.50;99.90;;;;;;5010018;28;20470;-68
2024/01/02 10:10:48;;;;;;;1.20;0.50;;;7.50;99.90;;;;;;5015270;28;20473;-64
2024/01/02 10:13:24;;;;;;;2.07;0.70;;;7.50;99.90;;;;;;5029159;28;20902;-63
2024/01/02 10:16:28;;;;;;;1.20;0.50;;;7.60;99.90;;;;;;5032140;28;20428;-65
2024/01/02 10:19:00;;;;;;;1.40;0.60;;;7.70;99.90;;;;;;4999630;28;20516;-65
2024/01/02 10:21:38;;;;;;;1.37;0.60;;;7.70;99.90;;;;;;5018578;28;20875;-69
2024/01/02 10:24:38;;;;;;;2.07;0.50;;;8.00;99.90;;;;;;5015933;28;20433;-69
2024/01/02 10:27:12;;;;;;;1.10;0.47;;;7.70;99.90;;;;;;5034414;28;20479;-68
2024/01/02 10:29:48;;;;;;;1.00;0.40;;;8.30;99.90;;;;;;5029161;28;21056;-69
2024/01/02 10:32:23;;;;;;;1.10;0.50;;;8.40;99.90;;;;;;5013673;28;20460;-69
2024/01/02 10:34:55;;;;;;;1.00;0.50;;;8.10;99.90;;;;;;5009294;28;20423;-69
2024/01/02 10:37:28;;;;;;;1.00;0.40;;;7.80;99.90;;;;;;5013507;28;20464;-69
2024/01/02 10:40:07;;;;;;;1.00;0.40;;;8.20;99.90;;;;;;5011648;28;20434;-69
2024/01/02 10:43:05;;;;;;;1.00;0.40;;;7.80;99.90;;;;;;5017703;28;20459;-68
2024/01/02 10:45:35;;;;;;;1.00;0.40;;;7.80;99.90;;;;;;4999615;28;20804;-69
2024/01/02 10:48:06;;;;;;;1.10;0.50;;;8.00;99.90;;;;;;5012600;28;20434;-69
2024/01/02 10:50:47;;;;;;;1.00;0.40;;;7.90;99.90;;;;;;5013006;28;20583;-68
2024/01/02 10:53:49;;;;;;;1.07;0.40;;;8.30;99.90;;;;;;5020699;28;20476;-67
2024/01/02 10:56:38;;;;;;;11.60;0.67;;;8.00;99.90;;;;;;5005312;28;20422;-67
2024/01/02 10:59:23;;;;;;;1.00;0.40;;;8.00;99.90;;;;;;5016534;28;20934;-68
2024/01/02 11:01:51;;;;;;;1.00;0.40;;;8.10;99.90;;;;;;4997352;28;20953;-68
2024/01/02 11:04:48;;;;;;;1.30;0.50;;;8.10;99.90;;;;;;5023193;28;20429;-67
2024/01/02 11:07:20;;;;;;;1.30;0.50;;;8.10;99.90;;;;;;5023622;28;20508;-67
2024/01/02 11:10:08;;;;;;;1.00;0.40;;;8.30;99.90;;;;;;5013863;28;20418;-68
2024/01/02 11:12:52;;;;;;;1.13;0.53;;;8.20;99.90;;;;;;5013584;28;20438;-68
2024/01/02 11:15:19;;;;;;;1.10;0.50;;;8.10;99.90;;;;;;5020462;28;20512;-69
2024/01/02 11:17:47;;;;;;;1.00;0.40;;;8.50;99.90;;;;;;5022519;28;20438;-68
2024/01/02 11:20:20;;;;;;;1.30;0.50;;;8.30;99.90;;;;;;5022436;28;20879;-69
2024/01/02 11:22:53;;;;;;;1.10;0.50;;;8.30;99.90;;;;;;5000371;28;20422;-68
2024/01/02 11:25:23;;;;;;;1.67;0.70;;;8.10;99.90;;;;;;5011049;28;20446;-68
2024/01/02 11:27:51;;;;;;;1.47;0.70;;;8.10;99.90;;;;;;5020170;28;20737;-67
2024/01/02 11:30:18;;;;;;;2.20;0.70;;;7.90;99.90;;;;;;5012782;28;20429;-68
2024/01/02 11:32:50;;;;;;;2.27;0.80;;;7.90;99.90;;;;;;5019066;28;20422;-68
2024/01/02 11:35:16;;;;;;;1.50;0.80;;;7.90;99.90;;;;;;5007350;28;20770;-69
2024/01/02 11:37:58;;;;;;;1.63;0.50;;;7.90;99.90;;;;;;5012787;28;20432;-69
2024/01/02 11:40:32;;;;;;;1.30;0.50;;;7.90;99.90;;;;;;5019348;28;20230;-69
2024/01/02 11:42:58;;;;;;;1.97;0.70;;;7.80;99.90;;;;;;5021110;28;20914;-69
2024/01/02 11:45:33;;;;;;;1.90;0.70;;;7.90;99.90;;;;;;5025920;28;20918;-69
2024/01/02 11:48:51;;;;;;;1.03;0.40;;;7.90;99.90;;;;;;5021291;28;20419;-69
2024/01/02 11:51:29;;;;;;;1.10;0.50;;;7.90;99.90;;;;;;4938589;29;20464;-69
2024/01/02 11:54:16;;;;;;;1.27;0.50;;;7.90;99.90;;;;;;4943246;29;20431;-69
2024/01/02 11:56:42;;;;;;;1.10;0.50;;;7.80;99.90;;;;;;5008190;28;20457;-68
2024/01/02 11:59:16;;;;;;;1.20;0.60;;;7.90;99.90;;;;;;5017468;28;20741;-68
2024/01/02 12:02:08;;;;;;;1.10;0.50;;;7.90;99.90;;;;;;5007111;28;20514;-68
2024/01/02 12:05:08;;;;;;;1.57;1.00;;;7.90;99.90;;;;;;5012632;28;20414;-68
2024/01/02 12:07:38;;;;;;;1.40;0.50;;;7.90;99.90;;;;;;5012383;28;20440;-68
2024/01/02 12:10:05;;;;;;;1.07;0.50;;;8.00;99.90;;;;;;5020637;28;20450;-68
2024/01/02 12:12:54;;;;;;;1.30;0.63;;;7.90;99.90;;;;;;5025578;28;20777;-68
2024/01/02 12:15:26;;;;;;;1.93;0.50;;;7.80;99.90;;;;;;5006336;28;20857;-68
2024/01/02 12:18:06;;;;;;;1.10;0.50;;;8.10;99.90;;;;;;4994097;28;20477;-68
2024/01/02 12:20:55;;;;;;;1.10;0.50;;;7.70;99.90;;;;;;5012541;28;20419;-68
2024/01/02 12:23:21;;;;;;;1.10;0.60;;;7.80;99.90;;;;;;5020901;28;20418;-68
2024/01/02 12:25:48;;;;;;;1.20;0.53;;;7.90;99.90;;;;;;5011538;28;20603;-68
2024/01/02 12:28:14;;;;;;;1.00;0.40;;;7.80;99.90;;;;;;5029895;28;20421;-68
2024/01/02 12:30:55;;;;;;;1.30;0.67;;;7.80;99.90;;;;;;5023002;28;20454;-69
2024/01/02 12:33:35;;;;;;;2.17;0.80;;;7.70;99.90;;;;;;5031807;28;20423;-69
2024/01/02 12:36:32;;;;;;;1.40;0.70;;;7.80;99.90;;;;;;5023520;28;20476;-67
2024/01/02 12:39:05;;;;;;;1.20;0.60;;;8.00;99.90;;;;;;4994083;28;20440;-67
2024/01/02 12:41:37;;;;;;;1.10;0.50;;;7.80;99.90;;;;;;5017410;28;20486;-68
2024/01/02 12:44:06;;;;;;;1.50;0.70;;;8.10;99.90;;;;;;5012595;28;20423;-67
2024/01/02 12:46:42;;;;;;;1.10;0.50;;;7.70;99.90;;;;;;5012349;28;20971;-69
2024/01/02 12:49:28;;;;;;;1.20;0.50;;;7.70;99.90;;;;;;5010865;28;20432;-69
2024/01/02 12:52:02;;;;;;;1.40;0.80;;;7.70;99.90;;;;;;5005615;28;20517;-68
2024/01/02 12:54:29;;;;;;;1.63;0.80;;;7.70;99.90;;;;;;5015458;28;20926;-67
2024/01/02 12:57:00;;;;;;;1.77;0.77;;;8.00;99.90;;;;;;5024320;28;20466;-68
2024/01/02 12:59:33;;;;;;;2.10;0.73;;;7.70;99.90;;;;;;5006092;28;20782;-68
2024/01/02 13:02:04;;;;;;;1.60;0.73;;;7.70;99.90;;;;;;5020552;28;20484;-65
2024/01/02 13:04:30;;;;;;;1.10;0.60;;;7.70;99.90;;;;;;5016024;28;20517;-69
2024/01/02 13:06:56;;;;;;;1.30;0.60;;;7.80;99.90;;;;;;5019313;28;20445;-69